Airfield :
LOGIN :

Register | Disclaimer

   EN    FR    IT 

 










Legend :    VFR   Marginal VFR   IFR   Intensive IFR   Very Intensive IFR
Visi :
Ceiling :
>= 8 km
>= 3000ft
5 to 8 km
1000 to 3000 ft
1500m to 5 km
500 to 1000 ft
800 to 1500m
200 to 500 ft
< 800m
< 200 ft
Symbols :   Thunderstorms  Fog  Heavy snow  Heavy precipitations  Wind > 20 kt
SIGMETs :     Misc.  Thunderstorms  Icing  Turbulence  Mountain Waves  Volcanic Ashes







- Airport Elevation : 302 ft
- IATA code : CGN


EDDK - Cologne Bonn

CURRENT METAR :
  • 220550Z VRB01KT CAVOK 03/02 Q1031 NOSIG

EXPIRED METARs :
  • 220520Z VRB01KT CAVOK 03/02 Q1031 NOSIG
  • 220450Z 11003KT CAVOK 05/03 Q1031 NOSIG
  • 220420Z 08003KT 060V140 CAVOK 05/03 Q1031 NOSIG
  • 220350Z VRB02KT CAVOK 03/03 Q1031 NOSIG
  • 220320Z 15006KT CAVOK 03/02 Q1031 NOSIG

TAF TAF EDDK
Valid from the 22 at 06:00 until the 23 at 12:00 UTC


220500Z 2206/2312 14004KT CAVOK
TEMPO 2212/2217 15009KT
BECMG 2307/2310 31005KT
No reported NOTAMs for that airfield.



MET'MAP, your aeronautical weather chart ! - Copyright ORBIFLY December 2007 - Disclaimer

ORBIFLY MET'MAP TEAM :

Programming & Development : Alexandra Zaïnal
Concept & Development : Baudouin d'Aumeries
Co-Development & Prog : Marc-Olivier Méhu
Technical & hardware support : Manuel Goepfert

Contact : metmap@orbifly.com




SOURCES & CREDITS :

   NOAA